sensor_id;sensor_type;location;lat;lon;timestamp;pressure;altitude;pressure_sealevel;temperature;humidity
52983;BME280;48698;45.736;13.926;2023-01-27T00:03:50;97044.13;;;0.65;100.00
52983;BME280;48698;45.736;13.926;2023-01-27T00:08:54;96967.25;;;-0.07;100.00
52983;BME280;48698;45.736;13.926;2023-01-27T00:13:58;97072.88;;;0.63;100.00
52983;BME280;48698;45.736;13.926;2023-01-27T00:19:01;96922.50;;;-0.28;100.00
52983;BME280;48698;45.736;13.926;2023-01-27T00:24:05;97019.09;;;0.55;100.00
52983;BME280;48698;45.736;13.926;2023-01-27T00:29:28;97092.91;;;0.64;100.00
52983;BME280;48698;45.736;13.926;2023-01-27T00:34:32;97099.22;;;0.95;100.00
52983;BME280;48698;45.736;13.926;2023-01-27T00:39:35;97063.38;;;0.61;100.00
52983;BME280;48698;45.736;13.926;2023-01-27T00:44:39;96850.75;;;-0.49;100.00
52983;BME280;48698;45.736;13.926;2023-01-27T00:50:04;96992.72;;;0.25;100.00
52983;BME280;48698;45.736;13.926;2023-01-27T00:55:08;97079.16;;;0.96;100.00
52983;BME280;48698;45.736;13.926;2023-01-27T01:00:13;96975.31;;;0.26;100.00
52983;BME280;48698;45.736;13.926;2023-01-27T01:05:28;97098.03;;;1.09;100.00
52983;BME280;48698;45.736;13.926;2023-01-27T01:10:31;96957.31;;;0.12;100.00
52983;BME280;48698;45.736;13.926;2023-01-27T01:15:35;96956.69;;;0.01;100.00
52983;BME280;48698;45.736;13.926;2023-01-27T01:20:42;97062.31;;;0.69;100.00
52983;BME280;48698;45.736;13.926;2023-01-27T01:25:53;97071.41;;;0.91;100.00
52983;BME280;48698;45.736;13.926;2023-01-27T01:31:12;97024.03;;;0.67;100.00
52983;BME280;48698;45.736;13.926;2023-01-27T01:36:18;97036.91;;;0.76;100.00
52983;BME280;48698;45.736;13.926;2023-01-27T01:41:22;96998.13;;;0.58;100.00
52983;BME280;48698;45.736;13.926;2023-01-27T01:46:26;96993.38;;;0.36;100.00
52983;BME280;48698;45.736;13.926;2023-01-27T01:51:34;96748.63;;;-1.12;100.00
52983;BME280;48698;45.736;13.926;2023-01-27T01:57:04;97045.34;;;0.87;100.00
52983;BME280;48698;45.736;13.926;2023-01-27T02:02:12;97048.88;;;0.86;100.00
52983;BME280;48698;45.736;13.926;2023-01-27T02:12:49;97072.28;;;0.50;100.00
52983;BME280;48698;45.736;13.926;2023-01-27T02:17:53;96853.06;;;-0.78;100.00
52983;BME280;48698;45.736;13.926;2023-01-27T02:28:09;96746.78;;;-1.51;100.00
52983;BME280;48698;45.736;13.926;2023-01-27T02:33:13;96967.66;;;-0.26;100.00
52983;BME280;48698;45.736;13.926;2023-01-27T02:38:17;96806.00;;;-1.15;100.00
52983;BME280;48698;45.736;13.926;2023-01-27T02:43:27;97017.78;;;-0.09;100.00
52983;BME280;48698;45.736;13.926;2023-01-27T02:48:41;97068.34;;;0.31;100.00
52983;BME280;48698;45.736;13.926;2023-01-27T02:53:45;97091.03;;;0.29;100.00
52983;BME280;48698;45.736;13.926;2023-01-27T02:58:49;97068.47;;;0.24;100.00
52983;BME280;48698;45.736;13.926;2023-01-27T03:03:54;97022.25;;;-0.16;100.00
52983;BME280;48698;45.736;13.926;2023-01-27T03:08:57;96981.75;;;-0.33;100.00
52983;BME280;48698;45.736;13.926;2023-01-27T03:14:01;97010.97;;;-0.16;100.00
52983;BME280;48698;45.736;13.926;2023-01-27T03:19:04;97038.91;;;-0.21;100.00
52983;BME280;48698;45.736;13.926;2023-01-27T03:24:08;97074.00;;;0.09;100.00
52983;BME280;48698;45.736;13.926;2023-01-27T03:29:11;96978.16;;;-0.29;100.00
52983;BME280;48698;45.736;13.926;2023-01-27T03:34:34;97018.91;;;-0.22;100.00
52983;BME280;48698;45.736;13.926;2023-01-27T03:39:37;97025.00;;;-0.22;100.00
52983;BME280;48698;45.736;13.926;2023-01-27T03:44:59;97070.34;;;0.17;100.00
52983;BME280;48698;45.736;13.926;2023-01-27T03:50:21;97044.78;;;-0.10;100.00
52983;BME280;48698;45.736;13.926;2023-01-27T03:55:39;97025.47;;;-0.02;100.00
52983;BME280;48698;45.736;13.926;2023-01-27T04:00:44;97041.75;;;0.11;100.00
52983;BME280;48698;45.736;13.926;2023-01-27T04:06:02;96897.00;;;-1.05;100.00
52983;BME280;48698;45.736;13.926;2023-01-27T04:11:24;97056.00;;;-0.07;100.00
52983;BME280;48698;45.736;13.926;2023-01-27T04:16:47;97082.53;;;0.17;100.00
52983;BME280;48698;45.736;13.926;2023-01-27T04:21:52;97056.59;;;0.09;100.00
52983;BME280;48698;45.736;13.926;2023-01-27T04:27:02;97118.94;;;0.26;100.00
52983;BME280;48698;45.736;13.926;2023-01-27T04:32:08;97101.47;;;0.29;100.00
52983;BME280;48698;45.736;13.926;2023-01-27T04:37:22;96961.56;;;-0.70;100.00
52983;BME280;48698;45.736;13.926;2023-01-27T04:42:26;97090.09;;;0.32;100.00
52983;BME280;48698;45.736;13.926;2023-01-27T04:47:29;97109.41;;;0.23;100.00
52983;BME280;48698;45.736;13.926;2023-01-27T04:52:37;97015.09;;;-0.50;100.00
52983;BME280;48698;45.736;13.926;2023-01-27T04:57:41;96849.88;;;-1.40;100.00
52983;BME280;48698;45.736;13.926;2023-01-27T05:02:52;97019.16;;;-0.34;100.00
52983;BME280;48698;45.736;13.926;2023-01-27T05:07:56;97091.41;;;0.10;100.00
52983;BME280;48698;45.736;13.926;2023-01-27T05:12:59;97063.84;;;-0.07;100.00
52983;BME280;48698;45.736;13.926;2023-01-27T05:18:14;97129.19;;;0.36;100.00
52983;BME280;48698;45.736;13.926;2023-01-27T05:23:17;97030.22;;;-0.22;100.00
52983;BME280;48698;45.736;13.926;2023-01-27T05:28:42;97148.25;;;0.40;100.00
52983;BME280;48698;45.736;13.926;2023-01-27T05:33:48;97091.53;;;0.02;100.00
52983;BME280;48698;45.736;13.926;2023-01-27T05:38:53;97151.16;;;0.26;100.00
52983;BME280;48698;45.736;13.926;2023-01-27T05:43:58;97152.22;;;0.16;100.00
52983;BME280;48698;45.736;13.926;2023-01-27T05:49:02;97160.88;;;0.17;100.00
52983;BME280;48698;45.736;13.926;2023-01-27T05:54:08;97166.88;;;0.22;100.00
52983;BME280;48698;45.736;13.926;2023-01-27T05:59:12;97139.81;;;-0.22;100.00
52983;BME280;48698;45.736;13.926;2023-01-27T06:04:16;97085.69;;;-0.63;100.00
52983;BME280;48698;45.736;13.926;2023-01-27T06:09:19;97141.56;;;-0.22;100.00
52983;BME280;48698;45.736;13.926;2023-01-27T06:14:33;96851.59;;;-1.94;100.00
52983;BME280;48698;45.736;13.926;2023-01-27T06:19:37;97046.50;;;-1.12;100.00
52983;BME280;48698;45.736;13.926;2023-01-27T06:24:40;97047.88;;;-0.88;100.00
52983;BME280;48698;45.736;13.926;2023-01-27T06:29:44;97068.53;;;-0.76;100.00
52983;BME280;48698;45.736;13.926;2023-01-27T06:34:47;97145.25;;;-0.34;100.00
52983;BME280;48698;45.736;13.926;2023-01-27T06:40:01;97091.00;;;-0.67;100.00
52983;BME280;48698;45.736;13.926;2023-01-27T06:45:05;97208.03;;;0.08;100.00
52983;BME280;48698;45.736;13.926;2023-01-27T06:50:09;97084.88;;;-0.65;100.00
52983;BME280;48698;45.736;13.926;2023-01-27T06:55:24;97206.28;;;0.10;100.00
52983;BME280;48698;45.736;13.926;2023-01-27T07:00:27;97206.34;;;0.07;100.00
52983;BME280;48698;45.736;13.926;2023-01-27T07:05:32;97090.75;;;-0.50;100.00
52983;BME280;48698;45.736;13.926;2023-01-27T07:10:46;97191.25;;;0.22;100.00
52983;BME280;48698;45.736;13.926;2023-01-27T07:15:54;97031.25;;;-0.81;100.00
52983;BME280;48698;45.736;13.926;2023-01-27T07:20:58;97143.44;;;-0.30;100.00
52983;BME280;48698;45.736;13.926;2023-01-27T07:26:13;97086.00;;;-0.81;100.00
52983;BME280;48698;45.736;13.926;2023-01-27T07:31:26;97003.25;;;-1.22;100.00
52983;BME280;48698;45.736;13.926;2023-01-27T07:36:29;97151.06;;;-0.20;100.00
52983;BME280;48698;45.736;13.926;2023-01-27T07:41:33;97146.88;;;-0.28;100.00
52983;BME280;48698;45.736;13.926;2023-01-27T07:46:36;97080.53;;;-0.66;100.00
52983;BME280;48698;45.736;13.926;2023-01-27T07:51:40;97219.97;;;0.22;100.00
52983;BME280;48698;45.736;13.926;2023-01-27T07:56:43;97232.06;;;0.28;100.00
52983;BME280;48698;45.736;13.926;2023-01-27T08:01:47;97205.47;;;0.06;100.00
52983;BME280;48698;45.736;13.926;2023-01-27T08:06:58;97106.41;;;-0.52;100.00
52983;BME280;48698;45.736;13.926;2023-01-27T08:12:01;97114.38;;;-0.63;100.00
52983;BME280;48698;45.736;13.926;2023-01-27T08:17:05;97170.25;;;-0.21;100.00
52983;BME280;48698;45.736;13.926;2023-01-27T08:22:08;97058.31;;;-0.89;100.00
52983;BME280;48698;45.736;13.926;2023-01-27T08:27:12;97084.94;;;-0.68;100.00
52983;BME280;48698;45.736;13.926;2023-01-27T08:32:19;97174.56;;;-0.18;100.00
52983;BME280;48698;45.736;13.926;2023-01-27T08:37:23;97269.97;;;0.50;100.00
52983;BME280;48698;45.736;13.926;2023-01-27T08:42:27;97221.44;;;0.38;100.00
52983;BME280;48698;45.736;13.926;2023-01-27T08:47:31;97197.19;;;0.30;100.00
52983;BME280;48698;45.736;13.926;2023-01-27T08:52:34;97131.38;;;0.13;100.00
52983;BME280;48698;45.736;13.926;2023-01-27T08:57:38;97221.75;;;0.68;100.00
52983;BME280;48698;45.736;13.926;2023-01-27T09:02:41;97139.72;;;0.32;100.00
52983;BME280;48698;45.736;13.926;2023-01-27T09:07:48;97258.34;;;1.12;100.00
52983;BME280;48698;45.736;13.926;2023-01-27T09:12:57;97182.63;;;0.65;100.00
52983;BME280;48698;45.736;13.926;2023-01-27T09:18:01;97153.16;;;0.57;100.00
52983;BME280;48698;45.736;13.926;2023-01-27T09:23:08;97171.34;;;0.63;100.00
52983;BME280;48698;45.736;13.926;2023-01-27T09:28:11;97173.97;;;0.63;100.00
52983;BME280;48698;45.736;13.926;2023-01-27T09:33:21;97157.97;;;0.76;100.00
52983;BME280;48698;45.736;13.926;2023-01-27T09:38:27;97142.19;;;0.39;100.00
52983;BME280;48698;45.736;13.926;2023-01-27T09:43:43;97275.19;;;1.40;100.00
52983;BME280;48698;45.736;13.926;2023-01-27T09:54:16;97268.28;;;1.38;100.00
52983;BME280;48698;45.736;13.926;2023-01-27T09:59:46;97270.81;;;1.41;100.00
52983;BME280;48698;45.736;13.926;2023-01-27T10:04:57;97280.75;;;1.25;100.00
52983;BME280;48698;45.736;13.926;2023-01-27T10:16:24;97250.63;;;1.06;100.00
52983;BME280;48698;45.736;13.926;2023-01-27T10:21:56;97161.22;;;0.44;100.00
52983;BME280;48698;45.736;13.926;2023-01-27T10:27:15;97058.28;;;0.12;100.00
52983;BME280;48698;45.736;13.926;2023-01-27T10:32:26;97259.84;;;1.24;100.00
52983;BME280;48698;45.736;13.926;2023-01-27T10:59:56;97173.00;;;1.08;100.00
52983;BME280;48698;45.736;13.926;2023-01-27T11:05:32;97100.22;;;0.88;100.00
52983;BME280;48698;45.736;13.926;2023-01-27T11:10:41;97218.13;;;1.58;100.00
52983;BME280;48698;45.736;13.926;2023-01-27T11:16:10;97168.44;;;1.18;100.00
52983;BME280;48698;45.736;13.926;2023-01-27T11:21:21;97200.91;;;1.47;100.00
52983;BME280;48698;45.736;13.926;2023-01-27T11:26:36;97145.34;;;1.36;100.00
52983;BME280;48698;45.736;13.926;2023-01-27T11:31:59;97209.56;;;1.88;100.00
52983;BME280;48698;45.736;13.926;2023-01-27T11:37:16;97203.22;;;1.98;100.00
52983;BME280;48698;45.736;13.926;2023-01-27T11:42:23;97145.53;;;2.01;100.00
52983;BME280;48698;45.736;13.926;2023-01-27T11:47:39;97217.16;;;2.66;100.00
52983;BME280;48698;45.736;13.926;2023-01-27T11:52:47;96915.84;;;0.37;100.00
52983;BME280;48698;45.736;13.926;2023-01-27T11:57:56;97198.25;;;2.21;100.00
52983;BME280;48698;45.736;13.926;2023-01-27T12:03:12;97184.72;;;2.04;100.00
52983;BME280;48698;45.736;13.926;2023-01-27T12:08:42;97132.75;;;1.89;100.00
52983;BME280;48698;45.736;13.926;2023-01-27T12:13:49;97192.19;;;2.53;100.00
52983;BME280;48698;45.736;13.926;2023-01-27T12:19:00;97098.59;;;1.58;100.00
52983;BME280;48698;45.736;13.926;2023-01-27T12:24:12;97126.50;;;1.93;100.00
52983;BME280;48698;45.736;13.926;2023-01-27T12:29:44;97170.56;;;2.11;100.00
52983;BME280;48698;45.736;13.926;2023-01-27T12:34:53;97067.75;;;2.03;100.00
52983;BME280;48698;45.736;13.926;2023-01-27T12:40:00;97097.88;;;2.19;100.00
52983;BME280;48698;45.736;13.926;2023-01-27T12:45:25;97148.25;;;2.29;100.00
52983;BME280;48698;45.736;13.926;2023-01-27T12:50:37;97053.69;;;1.75;100.00
52983;BME280;48698;45.736;13.926;2023-01-27T12:55:56;97072.97;;;1.72;100.00
52983;BME280;48698;45.736;13.926;2023-01-27T13:01:20;97133.22;;;2.03;100.00
52983;BME280;48698;45.736;13.926;2023-01-27T13:06:37;97113.63;;;1.85;100.00
52983;BME280;48698;45.736;13.926;2023-01-27T13:11:45;97153.72;;;2.21;100.00
52983;BME280;48698;45.736;13.926;2023-01-27T13:16:52;97116.28;;;1.84;100.00
52983;BME280;48698;45.736;13.926;2023-01-27T13:22:05;97044.31;;;1.31;100.00
52983;BME280;48698;45.736;13.926;2023-01-27T13:27:15;97178.31;;;1.82;100.00
52983;BME280;48698;45.736;13.926;2023-01-27T13:32:31;97151.28;;;1.80;100.00
52983;BME280;48698;45.736;13.926;2023-01-27T13:37:49;97177.91;;;1.97;100.00
52983;BME280;48698;45.736;13.926;2023-01-27T13:43:07;97186.00;;;1.88;100.00
52983;BME280;48698;45.736;13.926;2023-01-27T13:48:19;97184.13;;;1.93;100.00
52983;BME280;48698;45.736;13.926;2023-01-27T13:53:24;97192.91;;;1.92;100.00
52983;BME280;48698;45.736;13.926;2023-01-27T13:58:53;97178.81;;;1.96;100.00
52983;BME280;48698;45.736;13.926;2023-01-27T14:30:43;97121.47;;;1.50;100.00
52983;BME280;48698;45.736;13.926;2023-01-27T14:35:58;97154.91;;;1.74;100.00
52983;BME280;48698;45.736;13.926;2023-01-27T14:52:15;97140.66;;;1.50;100.00
52983;BME280;48698;45.736;13.926;2023-01-27T15:03:31;97210.91;;;1.69;100.00
52983;BME280;48698;45.736;13.926;2023-01-27T15:14:13;97154.28;;;1.26;100.00
52983;BME280;48698;45.736;13.926;2023-01-27T15:30:34;97126.31;;;0.91;100.00
52983;BME280;48698;45.736;13.926;2023-01-27T15:35:40;97247.72;;;1.60;100.00
52983;BME280;48698;45.736;13.926;2023-01-27T15:41:13;97248.06;;;1.44;100.00
52983;BME280;48698;45.736;13.926;2023-01-27T15:46:33;97209.78;;;1.00;100.00
52983;BME280;48698;45.736;13.926;2023-01-27T15:51:38;97107.75;;;0.19;100.00
52983;BME280;48698;45.736;13.926;2023-01-27T15:56:46;97239.41;;;0.99;100.00
52983;BME280;48698;45.736;13.926;2023-01-27T16:07:32;97170.66;;;0.53;100.00
52983;BME280;48698;45.736;13.926;2023-01-27T16:12:40;97240.53;;;0.88;100.00
52983;BME280;48698;45.736;13.926;2023-01-27T16:29:03;97254.69;;;0.76;100.00
52983;BME280;48698;45.736;13.926;2023-01-27T16:34:21;97189.09;;;0.45;100.00
52983;BME280;48698;45.736;13.926;2023-01-27T16:39:36;97251.22;;;0.76;100.00
52983;BME280;48698;45.736;13.926;2023-01-27T16:44:47;97164.34;;;0.17;100.00
52983;BME280;48698;45.736;13.926;2023-01-27T16:49:52;97261.06;;;0.62;100.00
52983;BME280;48698;45.736;13.926;2023-01-27T16:54:59;97251.44;;;0.64;100.00
52983;BME280;48698;45.736;13.926;2023-01-27T17:00:07;97280.06;;;0.70;100.00
52983;BME280;48698;45.736;13.926;2023-01-27T17:05:20;97252.66;;;0.46;100.00
52983;BME280;48698;45.736;13.926;2023-01-27T17:10:24;97189.47;;;0.24;100.00
52983;BME280;48698;45.736;13.926;2023-01-27T17:15:37;97087.97;;;-0.41;100.00
52983;BME280;48698;45.736;13.926;2023-01-27T17:20:46;97260.50;;;0.44;100.00
52983;BME280;48698;45.736;13.926;2023-01-27T17:25:53;97068.63;;;-0.80;100.00
52983;BME280;48698;45.736;13.926;2023-01-27T17:31:02;97257.19;;;0.33;100.00
52983;BME280;48698;45.736;13.926;2023-01-27T17:36:10;97149.19;;;-0.64;100.00
52983;BME280;48698;45.736;13.926;2023-01-27T17:41:23;97247.31;;;0.02;100.00
52983;BME280;48698;45.736;13.926;2023-01-27T17:46:31;97306.59;;;0.48;100.00
52983;BME280;48698;45.736;13.926;2023-01-27T17:51:48;97227.47;;;-0.09;100.00
52983;BME280;48698;45.736;13.926;2023-01-27T17:57:01;97318.16;;;0.34;100.00
52983;BME280;48698;45.736;13.926;2023-01-27T18:02:15;97321.63;;;0.36;100.00
52983;BME280;48698;45.736;13.926;2023-01-27T18:07:22;97302.75;;;0.17;100.00
52983;BME280;48698;45.736;13.926;2023-01-27T18:12:35;97259.59;;;-0.05;100.00
52983;BME280;48698;45.736;13.926;2023-01-27T18:17:40;97343.44;;;0.32;100.00
52983;BME280;48698;45.736;13.926;2023-01-27T18:22:44;97136.84;;;-1.11;100.00
52983;BME280;48698;45.736;13.926;2023-01-27T18:27:50;97259.03;;;-0.24;100.00
52983;BME280;48698;45.736;13.926;2023-01-27T18:33:00;97347.09;;;0.20;100.00
52983;BME280;48698;45.736;13.926;2023-01-27T18:38:22;97354.91;;;0.20;100.00
52983;BME280;48698;45.736;13.926;2023-01-27T18:43:34;97322.19;;;-0.02;100.00
52983;BME280;48698;45.736;13.926;2023-01-27T18:48:38;97060.31;;;-1.68;100.00
52983;BME280;48698;45.736;13.926;2023-01-27T18:53:42;97381.03;;;0.20;100.00
52983;BME280;48698;45.736;13.926;2023-01-27T18:58:46;97381.03;;;0.20;100.00
52983;BME280;48698;45.736;13.926;2023-01-27T19:04:00;97287.06;;;-0.38;100.00
52983;BME280;48698;45.736;13.926;2023-01-27T19:09:04;97327.59;;;-0.14;100.00
52983;BME280;48698;45.736;13.926;2023-01-27T19:14:08;97337.13;;;-0.10;100.00
52983;BME280;48698;45.736;13.926;2023-01-27T19:19:12;97169.94;;;-1.17;100.00
52983;BME280;48698;45.736;13.926;2023-01-27T19:24:15;97058.75;;;-1.82;100.00
52983;BME280;48698;45.736;13.926;2023-01-27T19:29:30;97392.34;;;0.22;100.00
52983;BME280;48698;45.736;13.926;2023-01-27T19:34:33;97276.03;;;-0.60;100.00
52983;BME280;48698;45.736;13.926;2023-01-27T19:39:37;97102.03;;;-1.74;100.00
52983;BME280;48698;45.736;13.926;2023-01-27T19:44:41;97301.00;;;-0.42;100.00
52983;BME280;48698;45.736;13.926;2023-01-27T19:49:44;97272.03;;;-0.85;100.00
52983;BME280;48698;45.736;13.926;2023-01-27T19:54:48;97103.91;;;-1.85;100.00
52983;BME280;48698;45.736;13.926;2023-01-27T20:00:25;97418.59;;;0.12;100.00
52983;BME280;48698;45.736;13.926;2023-01-27T20:05:48;97252.13;;;-0.92;100.00
52983;BME280;48698;45.736;13.926;2023-01-27T20:11:39;97421.25;;;0.09;100.00
52983;BME280;48698;45.736;13.926;2023-01-27T20:17:00;97114.22;;;-1.76;100.00
52983;BME280;48698;45.736;13.926;2023-01-27T20:22:04;97397.22;;;-0.16;100.00
52983;BME280;48698;45.736;13.926;2023-01-27T20:27:17;97424.72;;;0.09;100.00
52983;BME280;48698;45.736;13.926;2023-01-27T20:32:21;97192.00;;;-1.48;100.00
52983;BME280;48698;45.736;13.926;2023-01-27T20:37:27;97333.44;;;-0.63;100.00
52983;BME280;48698;45.736;13.926;2023-01-27T20:42:31;97351.44;;;-0.43;100.00
52983;BME280;48698;45.736;13.926;2023-01-27T20:47:34;97123.78;;;-1.78;100.00
52983;BME280;48698;45.736;13.926;2023-01-27T20:52:38;97418.81;;;-0.04;100.00
52983;BME280;48698;45.736;13.926;2023-01-27T20:57:42;97321.41;;;-0.70;100.00
52983;BME280;48698;45.736;13.926;2023-01-27T21:02:47;97446.50;;;0.08;100.00
52983;BME280;48698;45.736;13.926;2023-01-27T21:07:51;97337.63;;;-0.46;100.00
52983;BME280;48698;45.736;13.926;2023-01-27T21:12:56;97446.41;;;0.14;100.00
52983;BME280;48698;45.736;13.926;2023-01-27T21:17:59;97306.53;;;-0.65;100.00
52983;BME280;48698;45.736;13.926;2023-01-27T21:23:03;97393.69;;;-0.12;100.00
52983;BME280;48698;45.736;13.926;2023-01-27T21:28:06;97212.50;;;-1.18;100.00
52983;BME280;48698;45.736;13.926;2023-01-27T21:33:10;97443.88;;;0.08;100.00
52983;BME280;48698;45.736;13.926;2023-01-27T21:38:14;97169.53;;;-1.59;100.00
52983;BME280;48698;45.736;13.926;2023-01-27T21:43:29;97410.38;;;-0.24;100.00
52983;BME280;48698;45.736;13.926;2023-01-27T21:48:51;97399.16;;;-0.30;100.00
52983;BME280;48698;45.736;13.926;2023-01-27T21:54:04;97325.09;;;-0.90;100.00
52983;BME280;48698;45.736;13.926;2023-01-27T21:59:09;97161.22;;;-1.91;100.00
52983;BME280;48698;45.736;13.926;2023-01-27T22:04:13;97112.75;;;-2.01;100.00
52983;BME280;48698;45.736;13.926;2023-01-27T22:09:26;97397.31;;;-0.24;100.00
52983;BME280;48698;45.736;13.926;2023-01-27T22:14:30;97131.56;;;-1.75;100.00
52983;BME280;48698;45.736;13.926;2023-01-27T22:19:35;97463.13;;;0.01;100.00
52983;BME280;48698;45.736;13.926;2023-01-27T22:24:40;97324.25;;;-0.91;100.00
52983;BME280;48698;45.736;13.926;2023-01-27T22:29:43;97418.09;;;-0.16;100.00
52983;BME280;48698;45.736;13.926;2023-01-27T22:34:47;97462.41;;;-0.12;100.00
52983;BME280;48698;45.736;13.926;2023-01-27T22:39:50;97180.88;;;-1.61;100.00
52983;BME280;48698;45.736;13.926;2023-01-27T22:44:54;97228.59;;;-1.61;100.00
52983;BME280;48698;45.736;13.926;2023-01-27T22:50:08;97349.28;;;-0.78;100.00
52983;BME280;48698;45.736;13.926;2023-01-27T22:55:12;97215.53;;;-1.59;100.00
52983;BME280;48698;45.736;13.926;2023-01-27T23:00:16;97156.06;;;-1.94;100.00
52983;BME280;48698;45.736;13.926;2023-01-27T23:05:20;97424.41;;;-0.34;100.00
52983;BME280;48698;45.736;13.926;2023-01-27T23:10:28;97395.31;;;-0.74;100.00
52983;BME280;48698;45.736;13.926;2023-01-27T23:15:31;97430.69;;;-0.52;100.00
52983;BME280;48698;45.736;13.926;2023-01-27T23:20:36;97138.97;;;-2.19;100.00
52983;BME280;48698;45.736;13.926;2023-01-27T23:25:43;97460.09;;;-0.34;100.00
52983;BME280;48698;45.736;13.926;2023-01-27T23:30:48;97437.53;;;-0.41;100.00
52983;BME280;48698;45.736;13.926;2023-01-27T23:35:55;97327.88;;;-1.04;100.00
52983;BME280;48698;45.736;13.926;2023-01-27T23:41:00;97440.13;;;-0.37;100.00
52983;BME280;48698;45.736;13.926;2023-01-27T23:46:04;97418.50;;;-0.49;100.00
52983;BME280;48698;45.736;13.926;2023-01-27T23:51:12;97392.56;;;-0.62;100.00
52983;BME280;48698;45.736;13.926;2023-01-27T23:56:17;97435.00;;;-0.47;100.00
